Time;durP1;ratioP1;P1;durP2;ratioP2;P2;SDS_P1;SDS_P2;PMS_P1;PMS_P2;Temp;Humidity;BMP_temperature;BMP_pressure;BME280_temperature;BME280_humidity;BME280_pressure;Samples;Min_cycle;Max_cycle;Signal;HPM_P1;HPM_P2
2021/11/12 00:13:18;;;;;;;103.30;53.80;;;;;;;4.66;88.75;100827.25;1684361;85;25579;-61
2021/11/12 00:15:54;;;;;;;96.55;51.95;;;;;;;4.69;88.85;100822.73;1684213;84;27351;-60
2021/11/12 00:18:25;;;;;;;100.15;53.55;;;;;;;4.73;88.95;100823.02;1684296;85;25663;-61
2021/11/12 00:20:56;;;;;;;98.07;52.05;;;;;;;4.74;88.89;100822.77;1684229;84;25655;-60
2021/11/12 00:23:24;;;;;;;104.25;56.42;;;;;;;4.78;89.04;100828.42;1684207;85;25686;-60
2021/11/12 00:25:52;;;;;;;103.32;52.00;;;;;;;4.81;89.50;100829.25;1684402;85;25650;-62
2021/11/12 00:28:24;;;;;;;101.58;52.08;;;;;;;4.82;89.07;100829.00;1684331;84;27899;-61
2021/11/12 00:36:17;;;;;;;108.42;53.95;;;;;;;4.91;89.05;100822.62;1684610;85;25661;-60
2021/11/12 00:38:35;;;;;;;98.85;53.78;;;;;;;4.92;89.24;100826.93;1681468;85;25650;-60
2021/11/12 00:43:49;;;;;;;99.77;53.68;;;;;;;4.94;89.23;100822.11;1684370;85;25544;-61
2021/11/12 00:46:22;;;;;;;100.78;52.17;;;;;;;4.96;89.47;100821.86;1683949;85;25417;-60
2021/11/12 00:48:57;;;;;;;99.55;54.03;;;;;;;4.97;89.23;100822.94;1683729;85;25716;-62
2021/11/12 00:51:40;;;;;;;99.60;53.20;;;;;;;4.99;89.35;100818.66;1684248;85;25563;-60
2021/11/12 00:56:30;;;;;;;99.97;51.77;;;;;;;5.00;89.31;100814.36;1681792;85;25671;-60
2021/11/12 00:59:01;;;;;;;99.75;50.78;;;;;;;5.03;89.48;100816.53;1684381;84;25467;-60
2021/11/12 01:01:31;;;;;;;97.97;52.13;;;;;;;5.03;89.51;100813.84;1684428;85;25412;-61
2021/11/12 01:04:00;;;;;;;101.40;52.40;;;;;;;5.05;89.56;100817.06;1685676;85;25643;-60
2021/11/12 01:06:27;;;;;;;98.67;52.05;;;;;;;5.06;89.95;100817.90;1684709;85;28057;-62
2021/11/12 01:08:54;;;;;;;101.58;52.15;;;;;;;5.07;89.92;100820.83;1684302;85;27254;-63
2021/11/12 01:11:26;;;;;;;103.72;50.80;;;;;;;5.08;89.87;100822.46;1684585;85;25591;-60
2021/11/12 01:13:53;;;;;;;106.80;52.45;;;;;;;5.08;90.32;100822.46;1684559;85;26152;-60
2021/11/12 01:16:21;;;;;;;103.65;50.92;;;;;;;5.09;89.87;100825.43;1684398;85;25572;-62
2021/11/12 01:18:48;;;;;;;102.72;52.95;;;;;;;5.12;90.10;100826.77;1684623;85;27336;-60
2021/11/12 01:21:16;;;;;;;102.07;52.40;;;;;;;5.12;90.01;100828.91;1684532;85;25390;-60
2021/11/12 01:23:47;;;;;;;113.47;54.43;;;;;;;5.13;89.98;100832.42;1684648;85;25711;-61
2021/11/12 01:26:13;;;;;;;104.30;51.92;;;;;;;5.16;90.12;100835.39;1684470;85;25623;-61
2021/11/12 01:28:41;;;;;;;109.05;53.58;;;;;;;5.15;89.95;100832.42;1659171;85;25617;-60
2021/11/12 01:31:09;;;;;;;112.05;53.85;;;;;;;5.18;89.92;100835.93;1684341;84;27647;-62
2021/11/12 01:33:36;;;;;;;106.72;55.20;;;;;;;5.20;89.99;100835.13;1684501;85;25660;-59
2021/11/12 01:36:17;;;;;;;109.97;53.70;;;;;;;5.19;90.24;100832.20;1684440;85;25607;-62
2021/11/12 01:38:33;;;;;;;107.87;54.85;;;;;;;5.18;90.13;100829.77;1682888;84;26262;-62
2021/11/12 01:41:00;;;;;;;106.85;55.30;;;;;;;5.16;90.07;100835.39;1684565;85;25640;-62
2021/11/12 01:43:29;;;;;;;102.97;53.87;;;;;;;5.17;90.25;100835.64;1684511;85;27369;-60
2021/11/12 01:46:08;;;;;;;112.30;54.45;;;;;;;5.16;90.24;100832.70;1684169;84;25568;-62
2021/11/12 01:48:47;;;;;;;115.42;56.33;;;;;;;5.16;90.18;100828.69;1683503;84;25726;-61
2021/11/12 01:53:43;;;;;;;116.97;56.15;;;;;;;5.21;90.14;100835.93;1684603;84;26208;-62
2021/11/12 01:59:05;;;;;;;110.80;53.48;;;;;;;5.22;90.19;100832.20;1684329;83;27303;-63
2021/11/12 02:01:22;;;;;;;111.42;53.98;;;;;;;5.23;90.16;100831.94;1664222;85;25636;-60
2021/11/12 02:03:52;;;;;;;114.97;54.83;;;;;;;5.26;90.31;100834.65;1682927;85;25666;-61
2021/11/12 02:06:23;;;;;;;113.68;54.53;;;;;;;5.26;90.31;100841.35;1685453;84;25662;-62
2021/11/12 02:08:53;;;;;;;126.78;57.27;;;;;;;5.26;90.22;100842.70;1684500;85;28075;-60
2021/11/12 02:11:21;;;;;;;129.45;57.55;;;;;;;5.28;90.20;100851.80;1664846;85;25819;-59
2021/11/12 02:13:49;;;;;;;122.78;56.55;;;;;;;5.28;90.36;100843.23;1675605;85;26230;-60
2021/11/12 02:16:23;;;;;;;122.00;55.60;;;;;;;5.26;90.17;100838.67;1675549;85;25654;-62
2021/11/12 02:18:47;;;;;;;126.30;54.98;;;;;;;5.27;90.35;100836.25;1675176;85;25573;-60
2021/11/12 02:21:30;;;;;;;123.95;55.70;;;;;;;5.25;90.43;100835.70;1683944;85;27671;-61
2021/11/12 02:26:25;;;;;;;118.55;53.58;;;;;;;5.25;90.36;100850.45;1669786;85;25462;-61
2021/11/12 02:28:55;;;;;;;114.40;55.40;;;;;;;5.27;90.51;100851.54;1684462;85;26233;-61
2021/11/12 02:31:23;;;;;;;;;;;;;;;5.27;90.39;100851.00;1687143;85;25407;-60
2021/11/12 02:33:51;;;;;;;115.10;53.25;;;;;;;5.28;90.50;100842.41;1648755;86;28048;-60
2021/11/12 02:36:19;;;;;;;124.15;55.58;;;;;;;5.25;90.40;100846.44;1621219;88;25744;-60
2021/11/12 02:38:51;;;;;;;117.33;54.18;;;;;;;5.27;90.41;100844.83;1675769;85;25641;-61
2021/11/12 02:41:20;;;;;;;119.77;53.28;;;;;;;5.26;90.46;100847.23;1683458;85;26046;-60
2021/11/12 02:43:48;;;;;;;124.00;54.03;;;;;;;5.24;90.43;100841.61;1684656;85;25398;-61
2021/11/12 02:46:20;;;;;;;121.25;55.23;;;;;;;5.26;90.57;100849.91;1684507;84;27388;-60
2021/11/12 02:48:48;;;;;;;118.15;53.30;;;;;;;5.24;90.64;100854.19;1684535;84;25696;-60
2021/11/12 02:51:25;;;;;;;121.82;54.05;;;;;;;5.24;90.58;100853.68;1684366;85;25668;-60
2021/11/12 02:53:49;;;;;;;112.50;52.50;;;;;;;5.28;90.65;100861.19;1682820;84;25619;-62
2021/11/12 02:56:29;;;;;;;115.95;54.35;;;;;;;5.28;90.71;100862.02;1684497;85;25548;-61
2021/11/12 02:59:10;;;;;;;120.15;54.15;;;;;;;5.28;90.76;100859.84;1684314;85;27431;-59
2021/11/12 03:01:45;;;;;;;121.95;53.75;;;;;;;5.26;90.86;100856.62;1687225;84;25457;-60
2021/11/12 03:04:15;;;;;;;125.67;53.20;;;;;;;5.24;90.75;100853.68;1687239;84;25404;-60
2021/11/12 03:06:43;;;;;;;114.20;52.53;;;;;;;5.26;90.76;100859.30;1684439;85;26223;-61
2021/11/12 03:09:11;;;;;;;129.60;53.55;;;;;;;5.27;90.97;100856.36;1684685;85;25558;-61
2021/11/12 03:11:41;;;;;;;115.35;53.28;;;;;;;5.26;90.92;100854.77;1687413;84;27314;-62
2021/11/12 03:14:10;;;;;;;116.97;52.93;;;;;;;5.27;90.96;100859.05;1687139;85;25686;-61
2021/11/12 03:16:39;;;;;;;121.80;52.35;;;;;;;5.29;91.07;100860.92;1686002;85;25564;-61
2021/11/12 03:19:08;;;;;;;113.47;54.98;;;;;;;5.29;91.08;100858.25;1684592;84;25611;-61
2021/11/12 03:21:41;;;;;;;116.40;52.85;;;;;;;5.28;91.02;100862.02;1683546;85;25474;-62
2021/11/12 03:24:18;;;;;;;119.93;53.78;;;;;;;5.29;91.07;100857.45;1683066;85;27381;-61
2021/11/12 03:59:45;;;;;;;108.92;51.40;;;;;;;5.43;91.34;100872.83;1588563;90;25770;-59
2021/11/12 04:20:29;;;;;;;104.17;49.38;;;;;;;5.47;91.33;100890.55;1682189;85;25589;-60
2021/11/12 04:49:12;;;;;;;105.92;48.90;;;;;;;5.48;91.65;100886.78;1682174;85;25473;-61
2021/11/12 05:11:38;;;;;;;105.90;48.28;;;;;;;5.59;91.83;100901.88;1691658;84;27651;-61
2021/11/12 05:46:16;;;;;;;112.55;50.67;;;;;;;5.67;91.87;100929.29;1603918;89;25741;-60
2021/11/12 05:56:42;;;;;;;117.37;50.25;;;;;;;5.65;92.38;100928.75;1602260;88;25668;-60
2021/11/12 05:59:10;;;;;;;120.47;49.98;;;;;;;5.65;92.35;100926.86;1602519;89;26413;-61
2021/11/12 06:01:39;;;;;;;119.55;51.15;;;;;;;5.67;92.33;100927.95;1606567;89;25698;-60
2021/11/12 06:04:07;;;;;;;110.95;49.40;;;;;;;5.69;92.27;100931.20;1606524;89;27337;-60
2021/11/12 06:06:34;;;;;;;102.27;49.40;;;;;;;5.70;92.28;100930.92;1606726;89;25803;-60
2021/11/12 06:09:03;;;;;;;118.28;52.20;;;;;;;5.71;92.33;100936.57;1606739;89;25517;-60
2021/11/12 06:11:29;;;;;;;111.45;50.67;;;;;;;5.74;92.32;100944.11;1606569;89;26239;-60
2021/11/12 06:13:58;;;;;;;113.40;49.65;;;;;;;5.75;92.29;100943.56;1606721;89;25636;-60
2021/11/12 06:16:26;;;;;;;121.67;50.80;;;;;;;5.75;92.34;100943.02;1617639;85;27343;-60
2021/11/12 06:18:54;;;;;;;120.55;52.13;;;;;;;5.77;92.27;100945.45;1670800;85;25684;-60
2021/11/12 06:21:23;;;;;;;117.28;49.53;;;;;;;5.78;92.36;100951.91;1675247;85;25679;-59
2021/11/12 06:23:50;;;;;;;112.68;49.30;;;;;;;5.81;92.29;100950.59;1679608;85;26149;-60
2021/11/12 06:26:19;;;;;;;124.33;50.43;;;;;;;5.83;92.30;100956.50;1679607;85;25691;-60
2021/11/12 06:28:46;;;;;;;119.13;51.35;;;;;;;5.83;92.29;100958.39;1659903;85;28028;-60
2021/11/12 06:31:13;;;;;;;122.25;51.02;;;;;;;5.84;92.34;100962.16;1679722;85;25856;-60
2021/11/12 06:33:40;;;;;;;120.30;50.25;;;;;;;5.83;92.36;100957.84;1679724;85;25395;-60
2021/11/12 06:36:07;;;;;;;118.25;48.70;;;;;;;5.85;92.41;100965.09;1679887;85;25740;-60
2021/11/12 06:38:36;;;;;;;114.65;49.15;;;;;;;5.89;92.46;100964.03;1679980;85;25728;-60
2021/11/12 06:41:08;;;;;;;128.07;49.90;;;;;;;5.91;92.55;100966.75;1679602;85;29573;-60
2021/11/12 06:51:34;;;;;;;125.20;51.70;;;;;;;5.94;92.46;100985.55;1679971;85;25464;-60
2021/11/12 06:54:01;;;;;;;140.40;52.93;;;;;;;5.95;92.58;100975.09;1680073;85;28084;-60
2021/11/12 06:56:28;;;;;;;137.05;53.48;;;;;;;5.94;92.54;100966.75;1679677;85;25581;-60
2021/11/12 06:58:55;;;;;;;129.27;50.20;;;;;;;5.98;92.61;100975.41;1680056;85;25647;-60
2021/11/12 07:01:21;;;;;;;128.27;51.10;;;;;;;5.95;92.49;100974.55;1683230;84;25913;-60
2021/11/12 07:03:50;;;;;;;129.95;51.68;;;;;;;5.99;92.67;100980.23;1684507;85;25657;-60
2021/11/12 07:06:16;;;;;;;127.42;50.43;;;;;;;5.98;92.84;100978.63;1684650;85;27386;-60
2021/11/12 07:08:45;;;;;;;137.28;54.03;;;;;;;5.97;92.74;100978.34;1684592;85;25669;-60
2021/11/12 07:11:12;;;;;;;136.28;51.23;;;;;;;5.98;92.86;100977.29;1684437;84;25554;-60
2021/11/12 07:13:39;;;;;;;129.63;52.95;;;;;;;5.99;92.91;100976.20;1684653;84;25608;-61
2021/11/12 07:16:06;;;;;;;133.40;53.35;;;;;;;6.01;92.94;100981.31;1684807;85;25564;-60
2021/11/12 07:18:33;;;;;;;144.32;55.65;;;;;;;6.03;92.99;100975.14;1684478;85;28932;-60
2021/11/12 07:21:00;;;;;;;131.72;52.17;;;;;;;6.03;92.96;100973.28;1684598;85;25672;-61
2021/11/12 07:23:27;;;;;;;141.73;54.25;;;;;;;6.07;93.11;100979.73;1684592;85;25658;-60
2021/11/12 07:25:55;;;;;;;130.32;51.63;;;;;;;6.09;93.17;100976.25;1693489;83;26406;-62
2021/11/12 07:28:27;;;;;;;137.22;53.30;;;;;;;6.09;93.02;100980.28;1701751;83;25571;-62
2021/11/12 07:30:55;;;;;;;135.20;52.13;;;;;;;6.12;93.07;100979.76;1704391;83;27872;-62
2021/11/12 07:33:24;;;;;;;140.95;53.33;;;;;;;6.14;93.10;100984.88;1705733;84;25659;-62
2021/11/12 07:38:43;;;;;;;148.17;54.77;;;;;;;6.16;93.17;100977.35;1705700;84;25723;-62
2021/11/12 07:41:13;;;;;;;137.37;53.73;;;;;;;6.21;93.20;100983.30;1704135;83;25616;-60
2021/11/12 07:48:33;;;;;;;141.07;53.52;;;;;;;6.27;93.35;100991.66;1705867;84;26166;-61
2021/11/12 07:51:01;;;;;;;138.52;53.13;;;;;;;6.29;93.31;100996.22;1705797;84;25671;-62
2021/11/12 07:53:27;;;;;;;145.15;54.60;;;;;;;6.32;93.38;100995.70;1705841;84;25736;-62
2021/11/12 07:55:55;;;;;;;145.47;53.40;;;;;;;6.34;93.49;100994.36;1705768;84;27327;-61
2021/11/12 07:58:22;;;;;;;147.05;53.38;;;;;;;6.35;93.33;100990.61;1705861;84;25663;-61
2021/11/12 08:00:49;;;;;;;144.72;53.98;;;;;;;6.41;93.37;100991.97;1707560;83;25656;-61
2021/11/12 08:03:18;;;;;;;143.68;52.33;;;;;;;6.42;93.36;100982.30;1710779;83;25671;-60
2021/11/12 08:05:49;;;;;;;148.55;52.78;;;;;;;6.45;93.25;100993.88;1710992;83;25746;-60
2021/11/12 08:08:15;;;;;;;151.90;55.65;;;;;;;6.48;93.25;100993.32;1700773;84;27336;-61
2021/11/12 08:10:51;;;;;;;149.93;54.93;;;;;;;6.52;93.39;100997.63;1700831;84;25826;-61
2021/11/12 08:13:21;;;;;;;136.72;50.33;;;;;;;6.52;93.34;100991.74;1700308;84;25644;-61
2021/11/12 08:15:48;;;;;;;138.10;51.95;;;;;;;6.58;93.27;100992.55;1700118;84;25671;-61
2021/11/12 08:18:27;;;;;;;142.72;52.35;;;;;;;6.61;93.37;100985.31;1700312;84;25566;-61
2021/11/12 08:20:55;;;;;;;139.75;53.73;;;;;;;6.68;93.57;100997.16;1699170;84;28316;-61
2021/11/12 08:23:31;;;;;;;135.55;52.95;;;;;;;6.72;93.54;100996.37;1698681;84;25954;-62
2021/11/12 08:26:04;;;;;;;142.50;54.23;;;;;;;6.73;93.53;100984.52;1699794;84;26164;-61
2021/11/12 08:28:40;;;;;;;149.77;52.67;;;;;;;6.82;93.38;100996.10;1699280;84;26562;-61
2021/11/12 08:38:33;;;;;;;140.33;52.37;;;;;;;7.01;94.15;100991.81;1701104;84;25687;-61
2021/11/12 08:48:21;;;;;;;120.17;48.08;;;;;;;7.43;94.12;100992.09;1701034;84;25534;-62
2021/11/12 08:50:45;;;;;;;119.60;47.83;;;;;;;7.52;93.96;100996.94;1698972;84;25730;-62
2021/11/12 08:53:15;;;;;;;105.10;42.95;;;;;;;7.61;94.25;100989.91;1676887;84;25788;-63
2021/11/12 08:55:44;;;;;;;109.65;44.67;;;;;;;7.72;93.79;100990.72;1684040;84;25901;-62
2021/11/12 08:58:13;;;;;;;101.25;41.55;;;;;;;7.77;93.47;100982.63;1678722;84;28202;-62
2021/11/12 09:00:42;;;;;;;106.47;46.48;;;;;;;7.84;93.14;100991.23;1686844;84;25708;-62
2021/11/12 09:03:11;;;;;;;105.80;46.87;;;;;;;7.88;92.37;100996.87;1703437;83;25717;-64
2021/11/12 09:05:38;;;;;;;111.75;45.10;;;;;;;7.86;92.02;100991.20;1712614;83;25609;-61
2021/11/12 09:08:05;;;;;;;111.83;46.45;;;;;;;7.88;91.81;101000.36;1680994;85;25808;-60
2021/11/12 09:10:32;;;;;;;110.52;45.08;;;;;;;7.94;92.48;101001.17;1679501;85;28181;-63
2021/11/12 09:15:49;;;;;;;95.95;44.08;;;;;;;8.07;92.39;101001.12;1706510;83;26390;-62
2021/11/12 09:18:12;;;;;;;102.62;44.03;;;;;;;8.09;91.63;100997.60;1714508;83;25691;-61
2021/11/12 09:20:38;;;;;;;110.50;44.00;;;;;;;8.15;92.26;100995.97;1715288;83;25563;-61
2021/11/12 09:23:06;;;;;;;92.78;41.70;;;;;;;8.29;92.92;100995.38;1715048;83;27957;-61
2021/11/12 09:25:32;;;;;;;92.10;38.78;;;;;;;8.41;92.76;100992.64;1695096;83;25735;-61
2021/11/12 09:27:59;;;;;;;93.37;39.73;;;;;;;8.50;92.23;100985.36;1715249;83;25676;-61
2021/11/12 09:30:29;;;;;;;79.90;36.75;;;;;;;8.59;91.98;100990.41;1714969;83;25615;-62
2021/11/12 09:32:55;;;;;;;87.02;39.83;;;;;;;8.65;91.16;100979.05;1714563;83;25647;-61
2021/11/12 09:35:23;;;;;;;94.20;41.05;;;;;;;8.68;90.55;100988.73;1715120;83;27370;-62
2021/11/12 09:37:50;;;;;;;104.53;43.15;;;;;;;8.72;91.07;100988.45;1715056;83;25701;-62
2021/11/12 09:40:18;;;;;;;105.70;43.92;;;;;;;8.80;90.70;100984.34;1715095;83;25716;-63
2021/11/12 09:42:44;;;;;;;98.15;43.78;;;;;;;8.87;91.06;100980.81;1715121;83;25669;-62
2021/11/12 09:45:12;;;;;;;110.12;46.08;;;;;;;8.97;90.86;100977.22;1715031;83;25772;-62
2021/11/12 09:47:40;;;;;;;94.50;43.50;;;;;;;9.07;90.45;100980.39;1715365;83;27309;-62
2021/11/12 09:50:12;;;;;;;101.40;43.87;;;;;;;9.11;89.83;100978.75;1715097;83;25749;-62
2021/11/12 09:52:41;;;;;;;96.70;43.15;;;;;;;9.15;89.09;100983.28;1714622;83;25794;-62
2021/11/12 09:55:09;;;;;;;96.85;42.50;;;;;;;9.15;88.63;100978.44;1715181;83;25795;-62
2021/11/12 09:57:37;;;;;;;100.90;44.58;;;;;;;9.14;88.56;100978.17;1715221;83;25619;-62
2021/11/12 10:00:08;;;;;;;95.03;42.80;;;;;;;9.17;88.33;100977.61;1715022;83;27310;-62
2021/11/12 10:02:41;;;;;;;94.00;42.35;;;;;;;9.28;88.78;100981.02;1707561;83;25605;-62
2021/11/12 10:05:15;;;;;;;98.17;44.13;;;;;;;9.26;88.15;100980.50;1694081;84;25559;-62
2021/11/12 10:07:42;;;;;;;100.60;43.75;;;;;;;9.21;87.75;100973.80;1704432;83;26156;-62
2021/11/12 10:10:15;;;;;;;96.90;43.73;;;;;;;9.20;87.80;100973.00;1709895;83;25671;-61
2021/11/12 10:12:48;;;;;;;96.72;43.48;;;;;;;9.21;87.67;100973.27;1705814;84;28008;-61
2021/11/12 10:15:23;;;;;;;107.67;44.75;;;;;;;9.25;87.87;100977.56;1703317;84;26028;-61
2021/11/12 10:17:51;;;;;;;96.50;43.52;;;;;;;9.32;88.04;100982.87;1706001;84;25588;-61
2021/11/12 10:20:22;;;;;;;98.35;42.90;;;;;;;9.49;88.89;100983.01;1705799;84;25853;-61
2021/11/12 10:22:51;;;;;;;87.53;41.60;;;;;;;9.60;88.10;100987.76;1705810;84;25701;-61
2021/11/12 10:25:21;;;;;;;89.45;42.55;;;;;;;9.69;87.89;100982.02;1705941;84;27897;-63
2021/11/12 10:27:50;;;;;;;91.08;40.43;;;;;;;9.75;87.49;100982.75;1706002;84;25707;-61
2021/11/12 10:30:22;;;;;;;92.12;41.05;;;;;;;9.85;87.95;100984.00;1705742;84;25717;-61
2021/11/12 10:32:57;;;;;;;95.72;42.25;;;;;;;9.92;87.38;100983.10;1704589;84;25715;-61
2021/11/12 10:35:31;;;;;;;88.15;40.60;;;;;;;9.95;87.03;100977.69;1705637;84;25746;-61
2021/11/12 10:38:10;;;;;;;95.83;42.30;;;;;;;10.00;86.75;100981.68;1705878;84;27321;-61
2021/11/12 10:40:37;;;;;;;91.85;41.18;;;;;;;10.06;86.92;100975.92;1706007;84;25628;-61
2021/11/12 10:43:04;;;;;;;85.72;40.00;;;;;;;10.15;86.63;100980.67;1705970;84;25619;-61
2021/11/12 10:45:34;;;;;;;90.75;41.88;;;;;;;10.19;86.07;100981.72;1704871;84;26164;-61
2021/11/12 10:48:07;;;;;;;90.07;41.42;;;;;;;10.16;85.26;100976.33;1674665;84;25710;-60
2021/11/12 10:50:40;;;;;;;84.50;40.58;;;;;;;10.07;84.55;100972.67;1673176;85;27503;-62
2021/11/12 10:53:10;;;;;;;119.95;56.08;;;;;;;10.00;84.56;100968.96;1616277;86;25712;-61
2021/11/12 10:55:36;;;;;;;;;;;;;;;9.95;84.42;100964.97;1695968;84;25940;-61
2021/11/12 10:58:08;;;;;;;76.20;36.98;;;;;;;9.88;84.43;100959.91;1700892;84;25774;-62
2021/11/12 11:00:39;;;;;;;85.10;39.38;;;;;;;9.84;84.59;100958.06;1705603;83;25623;-60
2021/11/12 11:03:09;;;;;;;90.12;38.85;;;;;;;9.87;84.62;100963.69;1706061;83;27378;-61
2021/11/12 11:05:55;;;;;;;80.65;37.60;;;;;;;9.82;84.28;100957.55;1705792;84;25829;-62
2021/11/12 11:08:32;;;;;;;83.92;39.42;;;;;;;9.78;84.43;100962.72;1705875;84;25749;-63
2021/11/12 11:11:06;;;;;;;83.50;39.60;;;;;;;9.79;84.61;100965.70;1706005;84;25676;-62
2021/11/12 11:13:38;;;;;;;82.60;37.83;;;;;;;9.75;84.44;100962.49;1705949;84;25494;-62
2021/11/12 11:16:10;;;;;;;83.45;39.50;;;;;;;9.70;84.53;100958.77;1706125;84;27391;-61
2021/11/12 11:18:42;;;;;;;85.45;40.40;;;;;;;9.74;84.90;100956.30;1705879;83;25861;-61
2021/11/12 11:21:24;;;;;;;85.38;40.12;;;;;;;9.73;84.38;100957.38;1705759;84;25672;-61
2021/11/12 11:24:12;;;;;;;85.97;41.70;;;;;;;9.67;84.32;100947.70;1704679;83;25608;-60
2021/11/12 11:26:46;;;;;;;91.72;42.25;;;;;;;9.70;84.83;100950.66;1700115;84;25629;-63
2021/11/12 11:29:16;;;;;;;86.50;42.17;;;;;;;9.71;85.03;100945.50;1701325;84;27313;-62
2021/11/12 11:31:44;;;;;;;89.75;40.80;;;;;;;9.77;84.93;100946.80;1705827;84;25683;-61
2021/11/12 11:34:11;;;;;;;87.45;40.50;;;;;;;9.83;85.10;100949.16;1705890;84;25618;-61
2021/11/12 11:36:44;;;;;;;87.12;40.83;;;;;;;9.88;85.12;100942.89;1687504;84;25745;-59
2021/11/12 11:39:13;;;;;;;89.62;42.73;;;;;;;9.95;85.07;100944.70;1705765;83;25679;-61
2021/11/12 11:41:43;;;;;;;97.30;42.60;;;;;;;10.00;84.92;100938.44;1705259;83;28053;-62
2021/11/12 11:44:15;;;;;;;90.72;44.13;;;;;;;10.05;85.08;100937.02;1702358;83;25767;-61
2021/11/12 11:46:44;;;;;;;93.95;44.15;;;;;;;10.13;85.10;100932.33;1685617;84;25662;-61
2021/11/12 11:49:16;;;;;;;103.58;49.15;;;;;;;10.24;85.27;100932.43;1698772;84;25695;-61
2021/11/12 11:51:56;;;;;;;85.55;41.63;;;;;;;10.36;85.14;100932.03;1689184;84;25516;-62
2021/11/12 11:54:25;;;;;;;88.22;42.62;;;;;;;10.46;84.65;100927.83;1694098;84;27319;-61
2021/11/12 11:56:59;;;;;;;85.32;41.75;;;;;;;10.51;84.29;100926.97;1694243;84;26049;-60
2021/11/12 11:59:34;;;;;;;91.02;42.90;;;;;;;10.55;83.70;100926.62;1693962;84;25871;-61
2021/11/12 12:02:06;;;;;;;86.85;43.33;;;;;;;10.59;83.52;100929.02;1701442;82;25603;-60
2021/11/12 12:04:51;;;;;;;87.55;41.35;;;;;;;10.59;83.18;100924.13;1713163;83;25387;-59
2021/11/12 12:07:23;;;;;;;82.67;40.65;;;;;;;10.59;82.91;100912.78;1691258;83;29458;-60
2021/11/12 12:10:27;;;;;;;86.78;43.40;;;;;;;10.57;82.33;100926.33;1720390;83;26355;-62
2021/11/12 12:13:03;;;;;;;87.15;42.13;;;;;;;10.50;82.11;100925.34;1718563;83;25455;-60
2021/11/12 12:15:37;;;;;;;85.65;40.55;;;;;;;10.42;82.13;100921.41;1717074;83;25610;-61
2021/11/12 12:18:12;;;;;;;78.20;41.45;;;;;;;10.41;82.50;100923.85;1720086;83;25628;-60
2021/11/12 12:21:09;;;;;;;85.10;41.20;;;;;;;10.43;82.46;100926.27;1716782;82;27336;-61
2021/11/12 12:35:23;;;;;;;85.22;41.25;;;;;;;10.36;82.04;100909.61;1720394;83;27808;-61
2021/11/12 13:18:16;;;;;;;87.75;40.20;;;;;;;10.22;81.94;100904.89;1716630;83;25855;-61
2021/11/12 13:26:06;;;;;;;93.52;44.63;;;;;;;9.63;82.34;100903.46;1707763;83;26241;-61
2021/11/12 13:28:44;;;;;;;88.17;43.48;;;;;;;9.59;82.43;100899.19;1718083;83;25392;-63
2021/11/12 13:31:18;;;;;;;82.80;41.95;;;;;;;9.54;82.48;100899.24;1701664;82;28414;-60
2021/11/12 13:33:58;;;;;;;91.82;43.23;;;;;;;9.49;82.49;100900.09;1711093;83;25688;-60
2021/11/12 13:36:37;;;;;;;91.45;43.98;;;;;;;9.46;82.46;100902.56;1712868;83;25653;-60
2021/11/12 13:39:17;;;;;;;91.95;44.70;;;;;;;9.42;82.52;100900.19;1713247;83;25682;-59
2021/11/12 13:41:42;;;;;;;89.15;44.65;;;;;;;9.36;82.61;100891.31;1711860;83;25724;-61
2021/11/12 13:44:13;;;;;;;89.47;43.50;;;;;;;9.33;82.71;100898.63;1712896;83;27446;-61
2021/11/12 13:46:59;;;;;;;88.12;43.85;;;;;;;9.30;82.84;100897.87;1712836;83;25658;-60
2021/11/12 13:49:40;;;;;;;85.22;42.67;;;;;;;9.26;82.90;100896.82;1712576;83;25560;-61
2021/11/12 13:52:33;;;;;;;93.52;44.65;;;;;;;9.22;83.07;100907.39;1712898;83;25681;-61
2021/11/12 13:55:15;;;;;;;81.08;40.85;;;;;;;9.18;83.11;100902.83;1717184;83;25751;-61
2021/11/12 13:57:57;;;;;;;86.63;41.85;;;;;;;9.14;83.15;100910.17;1716895;83;28974;-63
2021/11/12 14:00:29;;;;;;;84.85;42.03;;;;;;;9.09;83.21;100910.73;1697714;84;25857;-61
2021/11/12 14:03:11;;;;;;;78.85;41.58;;;;;;;9.03;83.17;100913.23;1704398;83;25970;-63
2021/11/12 14:05:58;;;;;;;87.55;42.73;;;;;;;8.97;83.29;100911.94;1716218;83;25712;-62
2021/11/12 14:08:34;;;;;;;83.62;40.92;;;;;;;8.94;83.45;100920.59;1717047;83;25833;-61
2021/11/12 14:11:04;;;;;;;85.87;42.33;;;;;;;8.93;83.69;100920.31;1714956;83;27423;-63
2021/11/12 14:13:44;;;;;;;79.97;42.43;;;;;;;8.91;83.64;100917.10;1716314;83;25884;-62
2021/11/12 14:16:20;;;;;;;82.80;41.63;;;;;;;8.89;83.78;100916.59;1716063;83;25746;-64
2021/11/12 14:24:38;;;;;;;82.08;43.02;;;;;;;8.87;83.93;100918.77;1716865;83;28069;-62
2021/11/12 14:27:04;;;;;;;89.28;43.38;;;;;;;8.86;84.07;100919.84;1715601;83;25716;-61
2021/11/12 14:30:00;;;;;;;89.62;44.50;;;;;;;8.81;84.01;100921.23;1716331;83;25821;-63
2021/11/12 14:38:14;;;;;;;80.72;42.00;;;;;;;8.71;84.35;100928.05;1742136;82;27355;-61
2021/11/12 14:46:27;;;;;;;88.58;45.60;;;;;;;8.61;84.57;100928.91;1740086;82;25811;-62
2021/11/12 14:51:26;;;;;;;84.95;43.70;;;;;;;8.56;84.73;100930.30;1741550;82;27395;-61
2021/11/12 14:53:56;;;;;;;83.70;43.05;;;;;;;8.53;84.81;100930.84;1761843;80;25658;-61
2021/11/12 14:56:25;;;;;;;83.90;44.95;;;;;;;8.50;84.91;100924.14;1781407;80;25704;-62
2021/11/12 14:59:02;;;;;;;85.70;42.78;;;;;;;8.48;84.91;100929.53;1782666;80;25625;-62
2021/11/12 15:01:32;;;;;;;81.15;43.28;;;;;;;8.48;84.99;100928.19;1782424;80;25884;-62
2021/11/12 15:03:59;;;;;;;80.42;42.83;;;;;;;8.47;84.92;100927.39;1782595;80;27426;-62
2021/11/12 15:06:27;;;;;;;83.25;43.58;;;;;;;8.44;85.02;100926.59;1782992;80;25630;-62
2021/11/12 15:11:30;;;;;;;81.60;43.73;;;;;;;8.41;85.11;100937.89;1782681;80;25714;-62
2021/11/12 15:14:06;;;;;;;77.80;41.53;;;;;;;8.39;85.22;100939.55;1759254;80;25604;-62
2021/11/12 15:16:34;;;;;;;82.42;42.33;;;;;;;8.37;85.16;100934.95;1785296;80;27403;-63
2021/11/12 15:19:04;;;;;;;89.15;43.45;;;;;;;8.37;85.26;100943.59;1785529;80;25623;-61
2021/11/12 15:21:37;;;;;;;;;;;;;;;8.36;85.35;100937.92;1786067;80;25614;-62
2021/11/12 15:29:26;;;;;;;87.67;42.50;;;;;;;8.30;85.57;100947.94;1782926;80;27331;-63
2021/11/12 15:34:28;;;;;;;88.97;43.35;;;;;;;8.30;85.75;100952.53;1782778;80;25440;-63
2021/11/12 15:37:08;;;;;;;94.80;45.67;;;;;;;8.29;85.89;100946.86;1783086;80;25772;-62
2021/11/12 15:39:39;;;;;;;87.45;44.48;;;;;;;8.27;85.90;100948.48;1782325;80;25458;-61
2021/11/12 15:44:35;;;;;;;89.20;45.25;;;;;;;8.22;85.95;100954.73;1782962;80;33303;-62
2021/11/12 15:47:06;;;;;;;87.40;43.58;;;;;;;8.20;86.02;100956.08;1782871;80;25631;-61
2021/11/12 15:49:34;;;;;;;83.55;43.52;;;;;;;8.22;86.05;100961.98;1782711;80;25696;-61
2021/11/12 15:52:05;;;;;;;89.20;44.90;;;;;;;8.22;86.12;100964.16;1782929;80;25694;-62
2021/11/12 15:54:43;;;;;;;86.37;44.50;;;;;;;8.22;86.23;100959.30;1775641;80;27370;-61
2021/11/12 16:02:30;;;;;;;76.20;39.83;;;;;;;8.17;86.37;100962.84;1772469;80;25690;-61
2021/11/12 16:04:56;;;;;;;79.60;40.08;;;;;;;8.17;86.43;100968.23;1769390;80;25444;-65
2021/11/12 16:26:58;;;;;;;79.97;40.95;;;;;;;8.16;86.76;100968.50;1772463;80;32515;-64
2021/11/12 16:31:51;;;;;;;82.02;40.83;;;;;;;8.18;86.74;100973.06;1772254;80;27351;-64
2021/11/12 16:34:20;;;;;;;84.45;41.45;;;;;;;8.18;86.73;100975.77;1772298;80;25754;-64
2021/11/12 16:36:52;;;;;;;83.58;40.60;;;;;;;8.19;86.83;100970.09;1772193;80;25840;-63
2021/11/12 16:39:18;;;;;;;78.83;40.95;;;;;;;8.17;86.75;100974.96;1774359;80;25618;-63
2021/11/12 16:42:04;;;;;;;80.07;40.45;;;;;;;8.20;86.74;100978.43;1774953;80;25719;-64
2021/11/12 16:44:47;;;;;;;78.15;40.45;;;;;;;8.21;86.81;100978.70;1772535;80;27498;-64
2021/11/12 16:47:22;;;;;;;79.05;42.17;;;;;;;8.22;86.75;100987.07;1768331;80;25778;-64
2021/11/12 16:49:40;;;;;;;77.42;39.20;;;;;;;8.23;86.77;100983.83;1767801;80;25379;-63